Time;durP1;ratioP1;P1;durP2;ratioP2;P2;SDS_P1;SDS_P2;PMS_P1;PMS_P2;Temp;Humidity;BMP_temperature;BMP_pressure;BME280_temperature;BME280_humidity;BME280_pressure;Samples;Min_cycle;Max_cycle;Signal;HPM_P1;HPM_P2
2022/05/19 00:04:06;;;;;;;66.33;61.63;;;;;;;16.85;100.00;101535.19;2015123;71;33329;-80
2022/05/19 00:09:52;;;;;;;66.83;61.90;;;;;;;16.84;100.00;101534.92;2010233;71;30944;-77
2022/05/19 00:15:36;;;;;;;65.80;61.00;;;;;;;16.84;100.00;101528.74;1998923;71;30810;-69
2022/05/19 00:21:24;;;;;;;67.63;62.87;;;;;;;16.75;100.00;101540.98;1991878;71;30818;-78
2022/05/19 00:27:08;;;;;;;69.97;65.10;;;;;;;16.68;100.00;101535.80;2005906;71;31410;-70
2022/05/19 00:32:52;;;;;;;67.83;63.20;;;;;;;16.53;100.00;101538.00;2004295;71;30888;-80
2022/05/19 00:38:37;;;;;;;65.67;61.03;;;;;;;16.70;100.00;101541.92;2009433;71;33298;-69
2022/05/19 00:44:21;;;;;;;68.07;63.27;;;;;;;16.82;100.00;101524.56;1991769;71;30832;-69
2022/05/19 00:50:11;;;;;;;66.00;61.20;;;;;;;16.79;100.00;101543.44;2001329;71;33336;-77
2022/05/19 00:55:59;;;;;;;70.27;65.37;;;;;;;16.92;100.00;101531.39;2016806;71;30878;-70
2022/05/19 01:01:46;;;;;;;69.40;64.43;;;;;;;17.01;100.00;101516.05;2019019;71;31008;-80
2022/05/19 01:07:35;;;;;;;73.37;68.20;;;;;;;16.71;100.00;101506.28;2013404;71;30965;-69
2022/05/19 01:13:23;;;;;;;68.07;63.17;;;;;;;16.50;100.00;101514.22;2011644;71;30880;-79
2022/05/19 01:19:13;;;;;;;72.90;68.00;;;;;;;16.31;100.00;101493.25;1991796;71;30925;-79
2022/05/19 01:25:00;;;;;;;75.80;70.60;;;;;;;16.25;100.00;101490.29;2004705;71;30902;-79
2022/05/19 01:30:46;;;;;;;74.80;69.80;;;;;;;16.33;100.00;101493.78;2000728;71;30825;-80
2022/05/19 01:37:08;;;;;;;67.10;62.40;;;;;;;15.76;100.00;101485.23;2015115;71;31446;-69
2022/05/19 01:42:56;;;;;;;65.03;60.40;;;;;;;15.89;100.00;101485.02;2015269;70;31392;-81
2022/05/19 01:45:33;;;;;;;66.77;61.97;;;;;;;15.80;100.00;101491.05;1984365;72;26662;-77
2022/05/19 01:48:07;;;;;;;64.07;59.23;;;;;;;15.72;100.00;101483.34;1970260;72;26211;-80
2022/05/19 01:53:56;;;;;;;63.93;59.27;;;;;;;15.53;100.00;101476.94;2013695;71;32745;-69
2022/05/19 01:59:44;;;;;;;65.40;60.70;;;;;;;15.60;100.00;101476.81;2005955;71;32875;-70
2022/05/19 02:02:18;;;;;;;67.50;62.70;;;;;;;15.72;100.00;101487.54;1985009;72;26668;-80
2022/05/19 02:04:51;;;;;;;68.17;63.37;;;;;;;15.69;100.00;101496.56;1982007;72;26214;-80
2022/05/19 02:10:42;;;;;;;67.07;62.47;;;;;;;15.57;100.00;101505.43;2013119;71;32942;-70
2022/05/19 02:16:45;;;;;;;64.33;59.60;;;;;;;15.44;100.00;101516.78;2006597;71;32928;-79
2022/05/19 02:22:35;;;;;;;63.90;59.20;;;;;;;15.53;100.00;101525.94;2002485;71;33426;-79
2022/05/19 02:28:26;;;;;;;67.97;63.03;;;;;;;15.92;100.00;101518.86;2000392;71;32879;-80
2022/05/19 02:34:11;;;;;;;68.53;63.53;;;;;;;15.91;100.00;101538.23;2014954;71;32844;-69
2022/05/19 02:39:56;;;;;;;65.57;60.77;;;;;;;15.90;100.00;101548.34;2004601;71;33252;-79
2022/05/19 02:45:41;;;;;;;69.43;64.43;;;;;;;15.85;100.00;101554.02;2004589;71;33201;-70
2022/05/19 02:51:26;;;;;;;69.10;63.47;;;;;;;15.79;100.00;101570.62;2018785;71;32874;-70
2022/05/19 02:57:11;;;;;;;70.03;64.73;;;;;;;15.81;100.00;101585.17;1976118;72;32955;-69
2022/05/19 03:02:57;;;;;;;69.13;64.00;;;;;;;15.71;100.00;101590.91;2011364;71;33085;-68
2022/05/19 03:08:43;;;;;;;74.90;69.30;;;;;;;15.75;100.00;101598.41;2013284;71;32878;-79
2022/05/19 03:14:28;;;;;;;74.23;68.53;;;;;;;15.75;100.00;101598.41;2006261;71;32886;-79
2022/05/19 03:20:14;;;;;;;74.63;69.07;;;;;;;15.73;100.00;101598.45;2002427;71;32886;-70
2022/05/19 03:26:02;;;;;;;71.40;65.63;;;;;;;15.78;100.00;101609.59;2016819;71;33315;-81
2022/05/19 03:31:47;;;;;;;76.37;70.57;;;;;;;15.76;100.00;101601.48;1991954;71;32807;-69
2022/05/19 03:37:31;;;;;;;74.60;68.80;;;;;;;15.71;100.00;101590.91;2013415;71;32894;-80
2022/05/19 03:43:15;;;;;;;77.33;71.43;;;;;;;15.73;100.00;101577.45;2016828;71;32861;-80
2022/05/19 03:49:00;;;;;;;76.93;71.13;;;;;;;15.71;100.00;101590.91;2014901;71;32844;-80
2022/05/19 03:54:45;;;;;;;74.43;68.47;;;;;;;15.71;100.00;101594.55;2018494;71;32896;-69
2022/05/19 04:00:29;;;;;;;78.43;72.53;;;;;;;15.72;100.00;101610.79;1979771;71;39659;-80
2022/05/19 04:06:26;;;;;;;80.60;74.60;;;;;;;15.76;100.00;101616.89;1997341;71;33244;-80
2022/05/19 04:12:14;;;;;;;74.27;68.17;;;;;;;15.76;100.00;101632.86;2015137;71;33387;-70
2022/05/19 04:17:58;;;;;;;74.77;68.77;;;;;;;15.71;100.00;101621.16;2011660;71;32819;-81
2022/05/19 04:23:42;;;;;;;75.57;69.73;;;;;;;15.76;100.00;101634.26;2000370;71;32906;-78
2022/05/19 04:29:27;;;;;;;77.93;72.03;;;;;;;15.74;100.00;101633.18;2000835;70;32817;-69
2022/05/19 04:35:12;;;;;;;79.07;73.07;;;;;;;15.78;100.00;101637.61;2006076;71;33376;-80
2022/05/19 04:41:01;;;;;;;80.60;74.30;;;;;;;15.85;100.00;101637.50;2011326;70;32900;-80
2022/05/19 04:46:46;;;;;;;81.00;75.00;;;;;;;15.85;100.00;101645.06;2011868;71;33348;-71
2022/05/19 04:52:30;;;;;;;78.37;72.43;;;;;;;15.80;100.00;101645.12;2016744;71;32834;-79
2022/05/19 04:58:14;;;;;;;81.13;75.13;;;;;;;15.83;100.00;101652.95;2013277;71;30982;-79
2022/05/19 05:03:58;;;;;;;72.47;66.93;;;;;;;15.98;100.00;101648.52;2013359;71;32881;-79
2022/05/19 05:09:43;;;;;;;72.97;67.37;;;;;;;15.86;100.00;101652.34;2006719;71;32811;-79
2022/05/19 05:15:28;;;;;;;78.30;72.53;;;;;;;15.91;100.00;101660.13;2006622;71;32926;-70
2022/05/19 05:21:13;;;;;;;77.37;71.67;;;;;;;15.79;100.00;101649.05;2013469;71;32859;-70
2022/05/19 05:26:57;;;;;;;78.27;72.67;;;;;;;15.85;100.00;101650.10;2011562;71;32896;-69
2022/05/19 05:32:42;;;;;;;74.37;68.67;;;;;;;15.87;100.00;101653.42;2011818;71;33306;-78
2022/05/19 05:38:26;;;;;;;74.20;68.20;;;;;;;15.92;100.00;101653.92;2018668;71;32840;-79
2022/05/19 05:44:11;;;;;;;73.80;67.97;;;;;;;15.97;100.00;101680.48;2015175;71;32882;-79
2022/05/19 05:49:55;;;;;;;72.47;66.70;;;;;;;16.16;100.00;101695.92;2000718;71;32775;-67
2022/05/19 05:55:40;;;;;;;75.27;69.67;;;;;;;16.17;100.00;101699.00;2000752;71;32773;-78
2022/05/19 06:01:25;;;;;;;76.73;71.33;;;;;;;16.29;100.00;101717.60;2006532;71;33300;-75
2022/05/19 06:07:10;;;;;;;73.27;68.27;;;;;;;16.14;100.00;101709.39;2014928;71;32837;-74
2022/05/19 06:12:54;;;;;;;78.23;72.70;;;;;;;16.08;100.00;101720.42;2004488;71;32833;-75
2022/05/19 06:18:39;;;;;;;79.50;74.20;;;;;;;16.02;100.00;101761.69;2014891;71;32849;-75
2022/05/19 06:24:23;;;;;;;76.93;71.63;;;;;;;15.55;100.00;101691.67;1994773;71;30976;-69
2022/05/19 06:30:12;;;;;;;75.93;70.43;;;;;;;15.90;100.00;101759.88;1997262;71;32823;-70
2022/05/19 06:35:57;;;;;;;80.33;74.77;;;;;;;15.86;100.00;101767.22;2011056;71;32829;-72
2022/05/19 06:47:46;;;;;;;74.70;69.17;;;;;;;15.66;100.00;101589.01;2007986;71;32954;-71
2022/05/19 06:53:30;;;;;;;78.40;72.77;;;;;;;15.72;100.00;101693.42;2016728;71;32909;-67
2022/05/19 06:59:16;;;;;;;74.73;69.33;;;;;;;15.80;100.00;101717.97;1997209;71;32773;-68
2022/05/19 07:05:01;;;;;;;73.53;68.43;;;;;;;15.88;100.00;101714.50;2009914;71;32886;-73
2022/05/19 07:10:48;;;;;;;75.27;70.10;;;;;;;15.91;100.00;101730.17;2000679;71;32766;-72
2022/05/19 07:16:34;;;;;;;75.23;70.03;;;;;;;15.89;100.00;101756.24;2005617;71;32879;-73
2022/05/19 07:22:22;;;;;;;76.07;70.83;;;;;;;15.94;100.00;101755.34;1995180;71;32789;-74
2022/05/19 07:28:08;;;;;;;73.20;68.13;;;;;;;16.18;100.00;101753.34;2014929;71;30938;-72
2022/05/19 07:33:53;;;;;;;73.53;68.43;;;;;;;16.34;100.00;101759.59;2011707;71;30871;-72
2022/05/19 07:39:37;;;;;;;77.27;72.07;;;;;;;16.65;100.00;101797.86;2009520;71;33403;-69
2022/05/19 07:45:22;;;;;;;78.40;73.07;;;;;;;16.64;100.00;101795.65;1998540;70;31432;-72
2022/05/19 07:51:07;;;;;;;81.23;75.93;;;;;;;16.56;100.00;101790.66;1998486;71;30889;-69
2022/05/19 07:56:52;;;;;;;76.97;71.77;;;;;;;16.69;100.00;101789.94;2000815;71;30951;-69
2022/05/19 08:02:36;;;;;;;77.13;72.17;;;;;;;16.48;100.00;101752.08;2016860;71;31028;-70
2022/05/19 08:08:21;;;;;;;76.87;71.67;;;;;;;16.69;100.00;101780.11;2018352;71;32890;-73
2022/05/19 08:20:09;;;;;;;70.50;66.03;;;;;;;17.12;100.00;101813.68;2011291;71;31076;-69
2022/05/19 08:25:55;;;;;;;72.97;68.20;;;;;;;17.22;100.00;101823.35;2011317;71;31435;-73
2022/05/19 08:31:39;;;;;;;71.73;67.13;;;;;;;17.24;100.00;101835.12;2010932;71;30907;-72
2022/05/19 08:37:23;;;;;;;75.70;70.83;;;;;;;17.21;100.00;101852.00;2018663;71;33438;-72
2022/05/19 08:43:10;;;;;;;72.77;68.07;;;;;;;17.42;100.00;101862.89;2000628;71;31450;-73
2022/05/19 08:49:00;;;;;;;70.73;66.33;;;;;;;17.41;100.00;101855.62;2016764;71;30946;-70
2022/05/19 08:54:49;;;;;;;71.17;66.87;;;;;;;17.72;100.00;101832.88;1998908;71;30974;-74
2022/05/19 09:00:38;;;;;;;70.20;66.10;;;;;;;18.21;100.00;101829.39;2000353;71;30937;-73
2022/05/19 09:13:02;;;;;;;59.87;56.60;;;;;;;18.76;100.00;101831.59;1995325;71;30865;-68
2022/05/19 09:18:50;;;;;;;60.40;57.20;;;;;;;18.43;100.00;101836.52;2005890;71;31008;-68
2022/05/19 09:24:34;;;;;;;56.97;53.87;;;;;;;18.87;100.00;101831.59;2006177;71;30823;-69
2022/05/19 09:30:34;;;;;;;56.53;53.57;;;;;;;19.62;100.00;101834.28;2003788;71;30903;-70
2022/05/19 09:36:23;;;;;;;52.57;49.40;;;;;;;19.85;100.00;101845.19;2008049;71;30805;-73
2022/05/19 09:42:14;;;;;;;50.20;47.43;;;;;;;19.75;100.00;101845.48;2002254;71;30953;-74
2022/05/19 09:48:05;;;;;;;43.47;40.97;;;;;;;20.01;100.00;101854.08;2014905;71;30903;-73
2022/05/19 09:53:59;;;;;;;54.80;51.60;;;;;;;20.15;100.00;101858.21;2013216;71;30944;-73
2022/05/19 09:59:45;;;;;;;40.27;38.07;;;;;;;20.06;100.00;101858.75;1997297;71;30819;-74
2022/05/19 10:02:21;;;;;;;39.07;36.97;;;;;;;20.14;100.00;101861.61;1976812;72;24162;-70
2022/05/19 10:08:09;;;;;;;34.83;32.83;;;;;;;19.98;100.00;101862.59;2013063;71;30854;-74
2022/05/19 10:14:06;;;;;;;41.70;39.40;;;;;;;19.67;100.00;101867.98;2005682;71;30960;-70
2022/05/19 10:20:00;;;;;;;36.00;33.73;;;;;;;20.22;100.00;101876.33;2013241;71;30872;-73
2022/05/19 10:26:11;;;;;;;32.37;30.50;;;;;;;20.25;100.00;101873.42;1997107;71;30806;-69
2022/05/19 10:32:23;;;;;;;24.60;23.30;;;;;;;19.92;100.00;101865.89;1999036;71;30949;-74
2022/05/19 10:38:21;;;;;;;26.57;25.07;;;;;;;19.70;100.00;101854.06;2016702;71;30892;-68
2022/05/19 10:44:39;;;;;;;25.47;24.03;;;;;;;20.30;100.00;101863.44;2013351;70;30943;-68
2022/05/19 10:50:32;;;;;;;26.30;24.70;;;;;;;20.73;100.00;101858.75;2011803;71;30839;-73
2022/05/19 10:56:43;;;;;;;27.33;25.10;;;;;;;20.57;100.00;101855.31;2013065;71;30908;-69
2022/05/19 11:02:54;;;;;;;23.77;22.20;;;;;;;20.63;100.00;101859.05;2013299;71;30953;-74
2022/05/19 11:05:32;;;;;;;23.30;21.60;;;;;;;20.67;100.00;101865.70;1969044;72;24262;-74
2022/05/19 11:08:05;;;;;;;23.00;21.50;;;;;;;20.73;100.00;101859.33;1976367;72;24148;-70
2022/05/19 11:10:39;;;;;;;21.83;20.63;;;;;;;20.72;100.00;101869.78;1984663;72;24220;-70
2022/05/19 11:16:43;;;;;;;20.90;19.63;;;;;;;20.74;100.00;101875.11;2005815;71;30958;-74
2022/05/19 11:19:19;;;;;;;20.13;18.93;;;;;;;20.73;100.00;101870.05;1970486;72;24237;-73
2022/05/19 11:21:52;;;;;;;19.20;18.00;;;;;;;20.80;100.00;101875.19;1967728;72;24166;-68
2022/05/19 11:24:26;;;;;;;19.13;18.03;;;;;;;20.77;100.00;101861.16;1968604;72;24237;-68
2022/05/19 11:30:19;;;;;;;17.97;16.97;;;;;;;21.05;100.00;101867.33;1994869;71;30923;-69
2022/05/19 11:36:10;;;;;;;17.43;16.50;;;;;;;21.16;100.00;101874.94;2009347;71;30966;-69
2022/05/19 11:41:59;;;;;;;15.77;14.97;;;;;;;21.03;100.00;101869.67;2002615;71;30969;-70
2022/05/19 12:00:08;;;;;;;11.77;11.00;;;;;;;21.12;100.00;101859.78;1997258;71;31353;-75
2022/05/19 12:05:57;;;;;;;11.30;10.70;;;;;;;21.17;100.00;101852.02;2004101;71;30954;-73
2022/05/19 12:11:54;;;;;;;11.53;10.73;;;;;;;21.24;100.00;101854.33;2013386;70;30885;-74
2022/05/19 12:17:58;;;;;;;13.00;12.30;;;;;;;21.18;100.00;101847.20;2001110;71;30864;-70
2022/05/19 12:24:11;;;;;;;13.30;12.60;;;;;;;21.35;100.00;101848.57;1995234;71;30963;-70
2022/05/19 12:36:26;;;;;;;11.30;10.53;;;;;;;21.53;100.00;101844.56;1991927;71;31351;-74
2022/05/19 12:42:26;;;;;;;11.50;10.90;;;;;;;21.48;100.00;101856.05;1959404;72;30977;-70
2022/05/19 12:48:27;;;;;;;11.45;10.82;;;;;;;21.53;100.00;101860.70;1995098;71;31399;-67
2022/05/19 12:54:28;;;;;;;11.10;10.40;;;;;;;21.53;100.00;101855.04;1995336;71;31350;-70
2022/05/19 13:00:44;;;;;;;11.75;10.95;;;;;;;21.58;100.00;101866.18;1998830;71;30909;-69
2022/05/19 13:06:33;;;;;;;11.65;11.05;;;;;;;21.57;100.00;101864.52;2011342;71;31433;-74
2022/05/19 13:12:21;;;;;;;11.00;10.45;;;;;;;21.53;100.00;101868.59;2010021;71;30842;-75
2022/05/19 13:18:12;;;;;;;10.97;10.40;;;;;;;21.46;100.00;101872.53;2013402;71;30929;-75
2022/05/19 13:23:57;;;;;;;11.50;10.70;;;;;;;21.48;100.00;101865.94;2000522;71;31464;-76
2022/05/19 13:33:15;;;;;;;11.43;10.73;;;;;;;21.55;100.00;101871.94;1969380;72;24159;-75
2022/05/19 13:39:09;;;;;;;12.28;11.38;;;;;;;21.60;100.00;101868.94;2018643;70;30970;-69
2022/05/19 13:45:04;;;;;;;11.83;11.18;;;;;;;21.63;100.00;101866.84;2006287;71;30874;-67
2022/05/19 13:50:50;;;;;;;11.80;11.10;;;;;;;21.66;100.00;101869.00;2005853;71;31043;-69
2022/05/19 13:59:48;;;;;;;12.53;11.57;;;;;;;21.98;100.00;101872.45;2056556;69;30561;-68
2022/05/19 14:02:22;;;;;;;11.35;10.75;;;;;;;21.98;100.00;101878.11;2014743;70;24227;-68
2022/05/19 14:04:52;;;;;;;11.88;11.18;;;;;;;22.07;100.00;101881.17;1937790;73;24238;-68
2022/05/19 14:07:23;;;;;;;12.10;11.30;;;;;;;22.18;100.00;101881.03;1931092;73;24227;-68
2022/05/19 14:09:58;;;;;;;11.85;11.25;;;;;;;22.24;100.00;101883.10;1936490;73;24156;-74
2022/05/19 14:12:34;;;;;;;12.30;11.60;;;;;;;22.14;100.00;101885.70;2017940;70;24192;-68
2022/05/19 14:15:07;;;;;;;11.55;10.82;;;;;;;22.05;100.00;101882.08;2013976;70;24170;-74
2022/05/19 14:17:43;;;;;;;11.75;11.05;;;;;;;22.10;100.00;101884.73;2008807;70;24740;-68
2022/05/19 14:20:19;;;;;;;12.60;11.70;;;;;;;22.08;100.00;101888.47;2010418;70;24149;-68
2022/05/19 14:22:52;;;;;;;11.85;11.03;;;;;;;22.08;100.00;101887.63;2010614;70;24234;-75
2022/05/19 14:25:25;;;;;;;12.15;11.40;;;;;;;22.13;100.00;101887.45;2012752;70;24158;-68
2022/05/19 14:31:16;;;;;;;12.37;11.53;;;;;;;21.89;100.00;101884.34;2004009;71;30877;-69
2022/05/19 14:37:13;;;;;;;12.23;11.57;;;;;;;22.03;100.00;101886.42;2014795;71;30913;-76
2022/05/19 14:43:07;;;;;;;11.30;10.50;;;;;;;21.94;100.00;101879.38;2006302;71;30848;-76
2022/05/19 14:48:56;;;;;;;11.50;10.85;;;;;;;21.94;100.00;101879.95;1991779;71;31412;-74
2022/05/19 14:54:42;;;;;;;12.10;11.30;;;;;;;22.03;100.00;101882.18;2014955;71;30977;-70
2022/05/19 15:00:29;;;;;;;11.20;10.60;;;;;;;21.99;100.00;101880.59;2003948;71;30877;-68
2022/05/19 15:06:15;;;;;;;12.37;11.67;;;;;;;22.00;100.00;101885.08;2011106;71;30946;-75
2022/05/19 15:12:06;;;;;;;12.07;11.18;;;;;;;22.23;100.00;101887.92;2018623;71;31357;-74
2022/05/19 15:17:50;;;;;;;11.70;11.10;;;;;;;22.40;100.00;101893.27;2009471;71;30889;-75
2022/05/19 15:23:37;;;;;;;12.10;11.40;;;;;;;22.39;100.00;101883.10;2013267;71;31103;-75
2022/05/19 15:29:21;;;;;;;11.57;10.82;;;;;;;22.53;100.00;101883.71;2010078;71;31074;-71
2022/05/19 15:35:07;;;;;;;11.38;10.78;;;;;;;22.38;100.00;101876.61;2013313;71;31383;-69
2022/05/19 15:40:51;;;;;;;11.50;10.90;;;;;;;22.34;100.00;101869.13;2009510;71;30992;-70
2022/05/19 15:46:36;;;;;;;12.30;11.60;;;;;;;22.38;100.00;101872.97;1909327;70;31179;-70
2022/05/19 15:52:21;;;;;;;11.28;10.65;;;;;;;22.45;100.00;101880.34;2007814;71;30946;-74
2022/05/19 15:58:06;;;;;;;11.45;10.85;;;;;;;22.09;100.00;101874.57;2008176;71;30824;-71
2022/05/19 16:03:51;;;;;;;12.63;11.40;;;;;;;21.96;100.00;101874.78;2002665;71;30899;-71
2022/05/19 16:09:35;;;;;;;12.50;11.60;;;;;;;22.00;100.00;101871.52;2016851;71;31454;-74
2022/05/19 16:15:22;;;;;;;12.40;11.33;;;;;;;21.97;100.00;101877.86;2013165;71;30910;-71
2022/05/19 16:21:10;;;;;;;10.32;9.63;;;;;;;21.99;100.00;101879.78;2014742;71;30878;-71
2022/05/19 16:26:54;;;;;;;10.60;10.00;;;;;;;22.02;100.00;101876.27;2013256;71;30973;-70
2022/05/19 16:32:38;;;;;;;11.83;11.12;;;;;;;22.02;100.00;101867.78;2009759;71;31006;-72
2022/05/19 16:38:23;;;;;;;11.48;10.88;;;;;;;22.04;100.00;101876.16;1995448;71;31387;-71
2022/05/19 16:44:07;;;;;;;11.60;10.90;;;;;;;22.05;100.00;101886.91;1999127;71;30833;-74
2022/05/19 16:49:51;;;;;;;11.68;10.98;;;;;;;22.05;100.00;101889.16;2014902;71;30969;-75
2022/05/19 17:01:39;;;;;;;11.68;10.82;;;;;;;21.89;100.00;101897.08;2009956;71;31415;-76
2022/05/19 17:07:24;;;;;;;11.97;11.12;;;;;;;21.50;100.00;101898.97;1996951;71;30865;-76
2022/05/19 17:13:10;;;;;;;11.93;11.22;;;;;;;21.27;100.00;101896.88;1997202;70;30937;-76
2022/05/19 17:18:55;;;;;;;11.12;10.53;;;;;;;21.35;100.00;101904.52;2011230;71;31418;-78
2022/05/19 17:24:40;;;;;;;11.90;11.12;;;;;;;21.26;100.00;101908.54;2014702;71;30882;-73
2022/05/19 17:30:29;;;;;;;11.43;10.93;;;;;;;21.14;100.00;101909.17;2013288;71;31492;-74
2022/05/19 17:36:15;;;;;;;11.88;11.28;;;;;;;21.18;100.00;101900.28;2018559;71;31341;-76
2022/05/19 17:41:59;;;;;;;11.60;11.00;;;;;;;21.16;100.00;101895.56;1994775;71;30993;-74
2022/05/19 17:47:45;;;;;;;11.80;11.03;;;;;;;21.08;100.00;101897.77;2004111;71;31429;-76
2022/05/19 17:53:31;;;;;;;11.10;10.50;;;;;;;21.11;100.00;101899.92;2016545;71;30966;-77
2022/05/19 17:59:16;;;;;;;11.10;10.60;;;;;;;21.28;100.00;101901.95;2009467;71;30943;-76
2022/05/19 18:05:01;;;;;;;11.97;11.27;;;;;;;21.21;100.00;101901.63;1995378;71;30822;-72
2022/05/19 18:10:45;;;;;;;11.55;10.95;;;;;;;21.23;100.00;101898.71;2014868;71;31466;-71
2022/05/19 18:22:32;;;;;;;12.70;11.60;;;;;;;21.14;100.00;101908.34;2011465;71;31047;-77
2022/05/19 18:28:16;;;;;;;12.20;11.38;;;;;;;21.32;100.00;101900.96;2010056;71;31396;-76
2022/05/19 18:34:02;;;;;;;12.83;11.90;;;;;;;20.95;100.00;101912.03;1999942;71;30901;-76
2022/05/19 18:39:49;;;;;;;11.63;10.93;;;;;;;20.81;100.00;101902.28;2016598;71;31005;-72
2022/05/19 18:45:33;;;;;;;12.65;11.55;;;;;;;20.68;100.00;101915.95;2014907;71;31521;-74
2022/05/19 18:51:17;;;;;;;12.53;11.53;;;;;;;20.90;100.00;101915.84;2009456;71;31019;-70
2022/05/19 18:57:02;;;;;;;13.55;11.80;;;;;;;21.07;100.00;101907.97;1964541;72;31065;-78
2022/05/19 19:02:46;;;;;;;12.13;11.40;;;;;;;21.14;100.00;101915.40;2015278;71;31383;-70
2022/05/19 19:08:33;;;;;;;12.30;11.30;;;;;;;20.94;100.00;101921.09;2007675;71;30997;-78
2022/05/19 19:14:19;;;;;;;12.47;11.37;;;;;;;21.01;100.00;101923.44;2011890;71;31292;-77
2022/05/19 19:20:07;;;;;;;12.68;11.65;;;;;;;21.13;100.00;101925.06;2015380;71;31031;-82
2022/05/19 19:25:52;;;;;;;13.87;12.27;;;;;;;20.57;100.00;101945.08;2011548;71;30975;-73
2022/05/19 19:31:38;;;;;;;13.90;12.80;;;;;;;19.94;100.00;101949.58;2000865;70;31443;-74
2022/05/19 19:37:22;;;;;;;14.40;13.17;;;;;;;19.94;100.00;101959.45;2006040;71;31454;-73
2022/05/19 19:43:07;;;;;;;14.17;13.07;;;;;;;19.81;100.00;101954.74;2009897;71;30877;-73
2022/05/19 19:48:51;;;;;;;13.93;12.93;;;;;;;19.51;100.00;101953.52;2013080;71;30902;-75
2022/05/19 19:54:38;;;;;;;13.73;12.47;;;;;;;19.26;100.00;101960.53;2005971;71;30906;-76
2022/05/19 20:00:25;;;;;;;12.87;11.97;;;;;;;19.23;100.00;101961.74;2009361;71;30992;-73
2022/05/19 20:06:09;;;;;;;12.90;11.83;;;;;;;19.13;100.00;101977.45;2002655;71;33406;-74
2022/05/19 20:11:54;;;;;;;13.60;12.20;;;;;;;19.10;100.00;101970.48;1995034;71;31412;-74
2022/05/19 20:17:40;;;;;;;12.43;11.57;;;;;;;18.99;100.00;101975.52;2015361;71;33312;-75
2022/05/19 20:23:27;;;;;;;12.33;11.53;;;;;;;18.82;100.00;101990.81;2004004;71;30884;-74
2022/05/19 20:29:12;;;;;;;12.13;11.30;;;;;;;18.66;100.00;101996.46;2000174;71;31416;-73
2022/05/19 20:34:57;;;;;;;12.07;11.30;;;;;;;18.61;100.00;102007.84;2013030;71;30901;-72
2022/05/19 20:40:41;;;;;;;12.60;11.67;;;;;;;18.39;100.00;101997.82;1997114;71;31380;-74
2022/05/19 20:46:25;;;;;;;13.17;12.23;;;;;;;18.27;100.00;101996.89;2016886;71;31003;-68
2022/05/19 20:52:10;;;;;;;12.27;11.57;;;;;;;18.15;100.00;102010.05;2003952;71;30965;-80
2022/05/19 20:57:54;;;;;;;12.57;11.77;;;;;;;18.08;100.00;102008.78;2014919;71;31455;-82
2022/05/19 21:03:39;;;;;;;12.53;11.60;;;;;;;17.96;100.00;102011.25;2013425;71;30995;-77
2022/05/19 21:09:23;;;;;;;12.50;11.70;;;;;;;17.90;100.00;101992.22;1995408;71;30933;-76
2022/05/19 21:15:12;;;;;;;13.80;12.80;;;;;;;17.65;100.00;101985.61;2018969;71;33461;-84
2022/05/19 21:20:56;;;;;;;12.93;12.07;;;;;;;17.55;100.00;102002.02;2014972;71;31000;-81
2022/05/19 21:26:43;;;;;;;12.70;11.83;;;;;;;17.47;100.00;102006.92;2015610;71;31357;-85
2022/05/19 21:32:27;;;;;;;13.10;12.30;;;;;;;17.36;100.00;102022.83;2004952;71;30833;-77
2022/05/19 21:38:13;;;;;;;13.27;12.37;;;;;;;17.26;100.00;102040.64;2011481;71;30934;-83
2022/05/19 21:43:57;;;;;;;14.33;13.23;;;;;;;17.16;100.00;102036.55;2017543;71;31332;-76
2022/05/19 21:49:42;;;;;;;13.80;12.70;;;;;;;17.10;100.00;102023.17;2009561;71;32896;-73
2022/05/19 21:55:26;;;;;;;13.20;12.13;;;;;;;16.94;100.00;102009.07;2012265;71;30871;-83
2022/05/19 22:01:12;;;;;;;14.03;12.83;;;;;;;16.80;100.00;101983.69;2003327;70;30838;-81
2022/05/19 22:13:00;;;;;;;14.60;13.50;;;;;;;16.56;100.00;101975.80;2014717;71;30910;-82
2022/05/19 22:18:44;;;;;;;15.23;14.13;;;;;;;16.40;100.00;101986.92;2016465;71;31519;-80
2022/05/19 22:24:28;;;;;;;15.53;14.27;;;;;;;16.13;100.00;101997.88;1988257;71;31526;-76
2022/05/19 22:30:15;;;;;;;15.63;14.50;;;;;;;16.31;100.00;101989.53;2006457;71;32805;-76
2022/05/19 22:36:00;;;;;;;15.93;14.80;;;;;;;16.35;100.00;101992.02;2009602;71;30991;-82
2022/05/19 22:41:44;;;;;;;15.70;14.80;;;;;;;16.36;100.00;101995.66;2000595;71;30841;-72
2022/05/19 22:47:47;;;;;;;16.83;15.53;;;;;;;16.20;100.00;101979.56;2014861;71;33372;-82
2022/05/19 22:53:34;;;;;;;16.30;15.33;;;;;;;16.24;100.00;102003.08;1995080;71;31043;-83
2022/05/19 22:59:18;;;;;;;17.90;16.73;;;;;;;16.28;100.00;102018.73;2012251;71;33353;-81
2022/05/19 23:05:02;;;;;;;17.57;16.60;;;;;;;15.99;100.00;102022.09;2004449;71;32862;-72
2022/05/19 23:10:47;;;;;;;18.97;17.57;;;;;;;16.06;100.00;102021.18;2007425;71;32856;-81
2022/05/19 23:16:33;;;;;;;20.27;18.97;;;;;;;15.96;100.00;102019.30;1995240;71;30916;-82
2022/05/19 23:22:17;;;;;;;19.80;18.57;;;;;;;16.04;100.00;102000.47;2016780;71;33471;-74
2022/05/19 23:28:02;;;;;;;22.90;21.60;;;;;;;15.72;100.00;101988.39;2013640;70;31410;-77
2022/05/19 23:33:46;;;;;;;22.57;21.10;;;;;;;15.54;100.00;102004.48;2011680;71;30946;-77
2022/05/19 23:39:32;;;;;;;22.67;21.27;;;;;;;15.72;100.00;102020.61;2017515;71;33308;-84
2022/05/19 23:45:16;;;;;;;22.77;21.00;;;;;;;15.71;100.00;102026.50;2013459;71;32837;-74
2022/05/19 23:51:02;;;;;;;22.43;21.03;;;;;;;15.57;100.00;102017.94;2012974;71;32837;-73
2022/05/19 23:56:47;;;;;;;24.40;22.70;;;;;;;15.59;100.00;102010.06;2015242;71;33305;-81
